<?xml version="1.0" encoding="UTF-8" standalone="no" ?>
<gpx xmlns="http://www.topografix.com/GPX/1/1" xmlns:xsi="http://www.w3.org/2001/XMLSchema-instance" xsi:schemaLocation="http://www.topografix.com/GPX/1/1 http://www.topografix.com/GPX/1/1/gpx.xsd" version="1.1" creator="VisuGPX - https://www.visugpx.com">
  <metadata>
    <name>26-CD-Vercors</name>
    <desc><![CDATA[26-CD-Vercors : chute de la Druise]]></desc>
  </metadata>
  <trk>
    <name><![CDATA[2015-06-28-2-druise_corr]]></name>
    <trkseg>
      <trkpt lat="44.82926" lon="5.19524">
        <ele>629.9</ele>
        <time>2015-06-28T12:46:28Z</time>
      </trkpt>
      <trkpt lat="44.82919" lon="5.19527">
        <ele>628.4</ele>
        <time>2015-06-28T12:46:38Z</time>
      </trkpt>
      <trkpt lat="44.82911" lon="5.19525">
        <ele>626.5</ele>
        <time>2015-06-28T12:46:44Z</time>
      </trkpt>
      <trkpt lat="44.82903" lon="5.19522">
        <ele>624.6</ele>
        <time>2015-06-28T12:46:55Z</time>
      </trkpt>
      <trkpt lat="44.82895" lon="5.19522">
        <ele>624.6</ele>
        <time>2015-06-28T12:47:00Z</time>
      </trkpt>
      <trkpt lat="44.82887" lon="5.19518">
        <ele>624.7</ele>
        <time>2015-06-28T12:47:08Z</time>
      </trkpt>
      <trkpt lat="44.8288" lon="5.19511">
        <ele>624.5</ele>
        <time>2015-06-28T12:47:14Z</time>
      </trkpt>
      <trkpt lat="44.82873" lon="5.19516">
        <ele>623.6</ele>
        <time>2015-06-28T12:47:21Z</time>
      </trkpt>
      <trkpt lat="44.82868" lon="5.19516">
        <ele>623.6</ele>
        <time>2015-06-28T12:47:32Z</time>
      </trkpt>
      <trkpt lat="44.82862" lon="5.19525">
        <ele>622.4</ele>
        <time>2015-06-28T12:47:48Z</time>
      </trkpt>
      <trkpt lat="44.82853" lon="5.19521">
        <ele>621.7</ele>
        <time>2015-06-28T12:48:12Z</time>
      </trkpt>
      <trkpt lat="44.82846" lon="5.19528">
        <ele>620.4</ele>
        <time>2015-06-28T12:48:30Z</time>
      </trkpt>
      <trkpt lat="44.82838" lon="5.1953">
        <ele>616.7</ele>
        <time>2015-06-28T12:48:49Z</time>
      </trkpt>
      <trkpt lat="44.8283" lon="5.19535">
        <ele>614.2</ele>
        <time>2015-06-28T12:49:03Z</time>
      </trkpt>
      <trkpt lat="44.82823" lon="5.19542">
        <ele>611.6</ele>
        <time>2015-06-28T12:49:14Z</time>
      </trkpt>
      <trkpt lat="44.82816" lon="5.19553">
        <ele>610.5</ele>
        <time>2015-06-28T12:49:25Z</time>
      </trkpt>
      <trkpt lat="44.82809" lon="5.19562">
        <ele>610.2</ele>
        <time>2015-06-28T12:49:34Z</time>
      </trkpt>
      <trkpt lat="44.82805" lon="5.19573">
        <ele>610.7</ele>
        <time>2015-06-28T12:49:49Z</time>
      </trkpt>
      <trkpt lat="44.82797" lon="5.19577">
        <ele>609.9</ele>
        <time>2015-06-28T12:50:13Z</time>
      </trkpt>
      <trkpt lat="44.82791" lon="5.19581">
        <ele>608.6</ele>
        <time>2015-06-28T12:50:21Z</time>
      </trkpt>
      <trkpt lat="44.82785" lon="5.19585">
        <ele>608.1</ele>
        <time>2015-06-28T12:50:32Z</time>
      </trkpt>
      <trkpt lat="44.82778" lon="5.19592">
        <ele>606.2</ele>
        <time>2015-06-28T12:50:42Z</time>
      </trkpt>
      <trkpt lat="44.82772" lon="5.1959">
        <ele>602.9</ele>
        <time>2015-06-28T12:51:06Z</time>
      </trkpt>
      <trkpt lat="44.82775" lon="5.19576">
        <ele>601.2</ele>
        <time>2015-06-28T12:51:11Z</time>
      </trkpt>
      <trkpt lat="44.82777" lon="5.19564">
        <ele>600.1</ele>
        <time>2015-06-28T12:51:17Z</time>
      </trkpt>
      <trkpt lat="44.82783" lon="5.19556">
        <ele>599.8</ele>
        <time>2015-06-28T12:51:26Z</time>
      </trkpt>
      <trkpt lat="44.8279" lon="5.19549">
        <ele>600.1</ele>
        <time>2015-06-28T12:51:37Z</time>
      </trkpt>
      <trkpt lat="44.82795" lon="5.19539">
        <ele>599.7</ele>
        <time>2015-06-28T12:51:47Z</time>
      </trkpt>
      <trkpt lat="44.82799" lon="5.19531">
        <ele>598.6</ele>
        <time>2015-06-28T12:51:56Z</time>
      </trkpt>
      <trkpt lat="44.82802" lon="5.19518">
        <ele>597.8</ele>
        <time>2015-06-28T12:52:03Z</time>
      </trkpt>
      <trkpt lat="44.82806" lon="5.19502">
        <ele>597.5</ele>
        <time>2015-06-28T12:52:11Z</time>
      </trkpt>
      <trkpt lat="44.82809" lon="5.19488">
        <ele>597.2</ele>
        <time>2015-06-28T12:52:19Z</time>
      </trkpt>
      <trkpt lat="44.82809" lon="5.19482">
        <ele>595.6</ele>
        <time>2015-06-28T12:52:28Z</time>
      </trkpt>
      <trkpt lat="44.8281" lon="5.19477">
        <ele>594.6</ele>
        <time>2015-06-28T12:52:41Z</time>
      </trkpt>
      <trkpt lat="44.8281" lon="5.19464">
        <ele>593</ele>
        <time>2015-06-28T12:52:49Z</time>
      </trkpt>
      <trkpt lat="44.82807" lon="5.19454">
        <ele>592.7</ele>
        <time>2015-06-28T12:52:57Z</time>
      </trkpt>
      <trkpt lat="44.82803" lon="5.19441">
        <ele>591.3</ele>
        <time>2015-06-28T12:53:10Z</time>
      </trkpt>
      <trkpt lat="44.828" lon="5.19433">
        <ele>591.1</ele>
        <time>2015-06-28T12:53:18Z</time>
      </trkpt>
      <trkpt lat="44.82797" lon="5.19422">
        <ele>590.5</ele>
        <time>2015-06-28T12:53:26Z</time>
      </trkpt>
      <trkpt lat="44.82798" lon="5.19414">
        <ele>590.4</ele>
        <time>2015-06-28T12:53:35Z</time>
      </trkpt>
      <trkpt lat="44.82797" lon="5.19409">
        <ele>589.7</ele>
        <time>2015-06-28T12:53:46Z</time>
      </trkpt>
      <trkpt lat="44.828" lon="5.19393">
        <ele>588.2</ele>
        <time>2015-06-28T12:53:56Z</time>
      </trkpt>
      <trkpt lat="44.82798" lon="5.1938">
        <ele>586.9</ele>
        <time>2015-06-28T12:54:05Z</time>
      </trkpt>
      <trkpt lat="44.82792" lon="5.19362">
        <ele>585.6</ele>
        <time>2015-06-28T12:54:15Z</time>
      </trkpt>
      <trkpt lat="44.82784" lon="5.19356">
        <ele>583.3</ele>
        <time>2015-06-28T12:54:29Z</time>
      </trkpt>
      <trkpt lat="44.82781" lon="5.19343">
        <ele>581.2</ele>
        <time>2015-06-28T12:54:49Z</time>
      </trkpt>
      <trkpt lat="44.82771" lon="5.19341">
        <ele>577.9</ele>
        <time>2015-06-28T12:55:13Z</time>
      </trkpt>
      <trkpt lat="44.82762" lon="5.19369">
        <ele>576.9</ele>
        <time>2015-06-28T12:55:28Z</time>
      </trkpt>
      <trkpt lat="44.82764" lon="5.19381">
        <ele>576.3</ele>
        <time>2015-06-28T12:55:38Z</time>
      </trkpt>
      <trkpt lat="44.82762" lon="5.19392">
        <ele>574.4</ele>
        <time>2015-06-28T12:55:50Z</time>
      </trkpt>
      <trkpt lat="44.82761" lon="5.19403">
        <ele>572.2</ele>
        <time>2015-06-28T12:56:01Z</time>
      </trkpt>
      <trkpt lat="44.82764" lon="5.19413">
        <ele>570.5</ele>
        <time>2015-06-28T12:56:16Z</time>
      </trkpt>
      <trkpt lat="44.82763" lon="5.19423">
        <ele>570.5</ele>
        <time>2015-06-28T12:56:28Z</time>
      </trkpt>
      <trkpt lat="44.82762" lon="5.19431">
        <ele>569.3</ele>
        <time>2015-06-28T12:56:37Z</time>
      </trkpt>
      <trkpt lat="44.8276" lon="5.19447">
        <ele>569</ele>
        <time>2015-06-28T12:56:47Z</time>
      </trkpt>
      <trkpt lat="44.82762" lon="5.19438">
        <ele>558.8</ele>
        <time>2015-06-28T12:58:02Z</time>
      </trkpt>
      <trkpt lat="44.82759" lon="5.19449">
        <ele>557.1</ele>
        <time>2015-06-28T12:58:28Z</time>
      </trkpt>
      <trkpt lat="44.82755" lon="5.19458">
        <ele>554.1</ele>
        <time>2015-06-28T12:58:44Z</time>
      </trkpt>
      <trkpt lat="44.82752" lon="5.19462">
        <ele>544</ele>
        <time>2015-06-28T12:59:54Z</time>
      </trkpt>
      <trkpt lat="44.82745" lon="5.19452">
        <ele>542.5</ele>
        <time>2015-06-28T13:00:08Z</time>
      </trkpt>
      <trkpt lat="44.82735" lon="5.1945">
        <ele>540.8</ele>
        <time>2015-06-28T13:00:17Z</time>
      </trkpt>
      <trkpt lat="44.82726" lon="5.19437">
        <ele>534</ele>
        <time>2015-06-28T13:01:02Z</time>
      </trkpt>
      <trkpt lat="44.8272" lon="5.19452">
        <ele>529</ele>
        <time>2015-06-28T13:01:40Z</time>
      </trkpt>
      <trkpt lat="44.82714" lon="5.19452">
        <ele>527</ele>
        <time>2015-06-28T13:01:51Z</time>
      </trkpt>
      <trkpt lat="44.82706" lon="5.19449">
        <ele>519</ele>
        <time>2015-06-28T13:02:38Z</time>
      </trkpt>
      <trkpt lat="44.82709" lon="5.19445">
        <ele>515</ele>
        <time>2015-06-28T13:03:10Z</time>
      </trkpt>
      <trkpt lat="44.82705" lon="5.19433">
        <ele>514</ele>
        <time>2015-06-28T13:03:20Z</time>
      </trkpt>
      <trkpt lat="44.82701" lon="5.19423">
        <ele>511</ele>
        <time>2015-06-28T13:03:49Z</time>
      </trkpt>
      <trkpt lat="44.82694" lon="5.1942">
        <ele>511</ele>
        <time>2015-06-28T13:03:57Z</time>
      </trkpt>
      <trkpt lat="44.82689" lon="5.19438">
        <ele>510</ele>
        <time>2015-06-28T13:04:05Z</time>
      </trkpt>
      <trkpt lat="44.82684" lon="5.19424">
        <ele>510</ele>
        <time>2015-06-28T13:04:13Z</time>
      </trkpt>
      <trkpt lat="44.82682" lon="5.19414">
        <ele>508</ele>
        <time>2015-06-28T13:04:21Z</time>
      </trkpt>
      <trkpt lat="44.82682" lon="5.19399">
        <ele>507</ele>
        <time>2015-06-28T13:04:29Z</time>
      </trkpt>
      <trkpt lat="44.82684" lon="5.19386">
        <ele>504</ele>
        <time>2015-06-28T13:04:44Z</time>
      </trkpt>
      <trkpt lat="44.82687" lon="5.19378">
        <ele>502</ele>
        <time>2015-06-28T13:05:00Z</time>
      </trkpt>
      <trkpt lat="44.82694" lon="5.1937">
        <ele>501</ele>
        <time>2015-06-28T13:05:08Z</time>
      </trkpt>
      <trkpt lat="44.82701" lon="5.19362">
        <ele>501</ele>
        <time>2015-06-28T13:05:16Z</time>
      </trkpt>
      <trkpt lat="44.82702" lon="5.19356">
        <ele>502</ele>
        <time>2015-06-28T13:05:30Z</time>
      </trkpt>
      <trkpt lat="44.82706" lon="5.19341">
        <ele>502</ele>
        <time>2015-06-28T13:05:38Z</time>
      </trkpt>
      <trkpt lat="44.82706" lon="5.19331">
        <ele>502</ele>
        <time>2015-06-28T13:05:54Z</time>
      </trkpt>
      <trkpt lat="44.82708" lon="5.19321">
        <ele>502</ele>
        <time>2015-06-28T13:06:02Z</time>
      </trkpt>
      <trkpt lat="44.8271" lon="5.19311">
        <ele>502</ele>
        <time>2015-06-28T13:06:06Z</time>
      </trkpt>
      <trkpt lat="44.82713" lon="5.19292">
        <ele>501</ele>
        <time>2015-06-28T13:06:10Z</time>
      </trkpt>
      <trkpt lat="44.82715" lon="5.19281">
        <ele>501</ele>
        <time>2015-06-28T13:06:14Z</time>
      </trkpt>
      <trkpt lat="44.82716" lon="5.1927">
        <ele>501</ele>
        <time>2015-06-28T13:06:22Z</time>
      </trkpt>
      <trkpt lat="44.82721" lon="5.19257">
        <ele>501</ele>
        <time>2015-06-28T13:06:26Z</time>
      </trkpt>
      <trkpt lat="44.82723" lon="5.19248">
        <ele>500</ele>
        <time>2015-06-28T13:06:34Z</time>
      </trkpt>
      <trkpt lat="44.82721" lon="5.19244">
        <ele>501</ele>
        <time>2015-06-28T13:06:38Z</time>
      </trkpt>
      <trkpt lat="44.82739" lon="5.19245">
        <ele>501</ele>
        <time>2015-06-28T13:06:42Z</time>
      </trkpt>
      <trkpt lat="44.82747" lon="5.19245">
        <ele>501</ele>
        <time>2015-06-28T13:06:46Z</time>
      </trkpt>
      <trkpt lat="44.8276" lon="5.19245">
        <ele>500</ele>
        <time>2015-06-28T13:06:50Z</time>
      </trkpt>
      <trkpt lat="44.82772" lon="5.19246">
        <ele>501</ele>
        <time>2015-06-28T13:06:55Z</time>
      </trkpt>
      <trkpt lat="44.8278" lon="5.1925">
        <ele>501</ele>
        <time>2015-06-28T13:07:03Z</time>
      </trkpt>
      <trkpt lat="44.82796" lon="5.19253">
        <ele>504.5</ele>
        <time>2015-06-28T13:10:39Z</time>
      </trkpt>
      <trkpt lat="44.82803" lon="5.19262">
        <ele>504</ele>
        <time>2015-06-28T13:11:48Z</time>
      </trkpt>
      <trkpt lat="44.82786" lon="5.19251">
        <ele>504</ele>
        <time>2015-06-28T13:12:01Z</time>
      </trkpt>
      <trkpt lat="44.82772" lon="5.19249">
        <ele>505</ele>
        <time>2015-06-28T13:12:31Z</time>
      </trkpt>
      <trkpt lat="44.82765" lon="5.19248">
        <ele>504</ele>
        <time>2015-06-28T13:13:00Z</time>
      </trkpt>
      <trkpt lat="44.82755" lon="5.19247">
        <ele>504</ele>
        <time>2015-06-28T13:13:11Z</time>
      </trkpt>
      <trkpt lat="44.82738" lon="5.19248">
        <ele>503</ele>
        <time>2015-06-28T13:13:19Z</time>
      </trkpt>
      <trkpt lat="44.82731" lon="5.19252">
        <ele>503</ele>
        <time>2015-06-28T13:13:28Z</time>
      </trkpt>
      <trkpt lat="44.82726" lon="5.19256">
        <ele>503</ele>
        <time>2015-06-28T13:13:35Z</time>
      </trkpt>
      <trkpt lat="44.82725" lon="5.19264">
        <ele>500</ele>
        <time>2015-06-28T13:14:26Z</time>
      </trkpt>
      <trkpt lat="44.82722" lon="5.1928">
        <ele>501</ele>
        <time>2015-06-28T13:14:32Z</time>
      </trkpt>
      <trkpt lat="44.82719" lon="5.19288">
        <ele>500</ele>
        <time>2015-06-28T13:14:39Z</time>
      </trkpt>
      <trkpt lat="44.82717" lon="5.19297">
        <ele>500</ele>
        <time>2015-06-28T13:14:54Z</time>
      </trkpt>
      <trkpt lat="44.82716" lon="5.19305">
        <ele>500</ele>
        <time>2015-06-28T13:14:58Z</time>
      </trkpt>
      <trkpt lat="44.82716" lon="5.19318">
        <ele>500</ele>
        <time>2015-06-28T13:15:02Z</time>
      </trkpt>
      <trkpt lat="44.8271" lon="5.19338">
        <ele>500</ele>
        <time>2015-06-28T13:18:13Z</time>
      </trkpt>
      <trkpt lat="44.82706" lon="5.19353">
        <ele>500</ele>
        <time>2015-06-28T13:18:19Z</time>
      </trkpt>
      <trkpt lat="44.82704" lon="5.19364">
        <ele>500</ele>
        <time>2015-06-28T13:18:25Z</time>
      </trkpt>
      <trkpt lat="44.82699" lon="5.19369">
        <ele>500</ele>
        <time>2015-06-28T13:18:33Z</time>
      </trkpt>
      <trkpt lat="44.82693" lon="5.19377">
        <ele>501</ele>
        <time>2015-06-28T13:18:41Z</time>
      </trkpt>
      <trkpt lat="44.82689" lon="5.19381">
        <ele>502</ele>
        <time>2015-06-28T13:18:49Z</time>
      </trkpt>
      <trkpt lat="44.82685" lon="5.1939">
        <ele>504</ele>
        <time>2015-06-28T13:19:03Z</time>
      </trkpt>
      <trkpt lat="44.82683" lon="5.19402">
        <ele>506</ele>
        <time>2015-06-28T13:19:15Z</time>
      </trkpt>
      <trkpt lat="44.82684" lon="5.19416">
        <ele>507</ele>
        <time>2015-06-28T13:19:23Z</time>
      </trkpt>
      <trkpt lat="44.82689" lon="5.1943">
        <ele>508</ele>
        <time>2015-06-28T13:19:31Z</time>
      </trkpt>
      <trkpt lat="44.82695" lon="5.19418">
        <ele>511</ele>
        <time>2015-06-28T13:19:46Z</time>
      </trkpt>
      <trkpt lat="44.82703" lon="5.19426">
        <ele>513</ele>
        <time>2015-06-28T13:20:02Z</time>
      </trkpt>
      <trkpt lat="44.82708" lon="5.19438">
        <ele>516</ele>
        <time>2015-06-28T13:20:26Z</time>
      </trkpt>
      <trkpt lat="44.82709" lon="5.19449">
        <ele>519</ele>
        <time>2015-06-28T13:20:46Z</time>
      </trkpt>
      <trkpt lat="44.82711" lon="5.19448">
        <ele>521</ele>
        <time>2015-06-28T13:20:58Z</time>
      </trkpt>
      <trkpt lat="44.82711" lon="5.19457">
        <ele>526</ele>
        <time>2015-06-28T13:21:34Z</time>
      </trkpt>
      <trkpt lat="44.82721" lon="5.19449">
        <ele>537</ele>
        <time>2015-06-28T13:22:37Z</time>
      </trkpt>
      <trkpt lat="44.82724" lon="5.1944">
        <ele>540</ele>
        <time>2015-06-28T13:23:04Z</time>
      </trkpt>
      <trkpt lat="44.82732" lon="5.19447">
        <ele>542</ele>
        <time>2015-06-28T13:23:17Z</time>
      </trkpt>
      <trkpt lat="44.82742" lon="5.19453">
        <ele>545</ele>
        <time>2015-06-28T13:23:34Z</time>
      </trkpt>
      <trkpt lat="44.82747" lon="5.19454">
        <ele>551</ele>
        <time>2015-06-28T13:24:10Z</time>
      </trkpt>
      <trkpt lat="44.82754" lon="5.19456">
        <ele>552</ele>
        <time>2015-06-28T13:24:30Z</time>
      </trkpt>
      <trkpt lat="44.82758" lon="5.19448">
        <ele>567</ele>
        <time>2015-06-28T13:26:08Z</time>
      </trkpt>
      <trkpt lat="44.82763" lon="5.19435">
        <ele>567</ele>
        <time>2015-06-28T13:26:16Z</time>
      </trkpt>
      <trkpt lat="44.82763" lon="5.19424">
        <ele>570</ele>
        <time>2015-06-28T13:26:32Z</time>
      </trkpt>
      <trkpt lat="44.82762" lon="5.19416">
        <ele>569</ele>
        <time>2015-06-28T13:27:01Z</time>
      </trkpt>
      <trkpt lat="44.82762" lon="5.19399">
        <ele>571</ele>
        <time>2015-06-28T13:27:16Z</time>
      </trkpt>
      <trkpt lat="44.82763" lon="5.19388">
        <ele>572</ele>
        <time>2015-06-28T13:27:32Z</time>
      </trkpt>
      <trkpt lat="44.82764" lon="5.19352">
        <ele>574</ele>
        <time>2015-06-28T13:27:44Z</time>
      </trkpt>
      <trkpt lat="44.82778" lon="5.19344">
        <ele>578</ele>
        <time>2015-06-28T13:28:04Z</time>
      </trkpt>
      <trkpt lat="44.82791" lon="5.19361">
        <ele>583</ele>
        <time>2015-06-28T13:28:44Z</time>
      </trkpt>
      <trkpt lat="44.82793" lon="5.19369">
        <ele>584</ele>
        <time>2015-06-28T13:28:56Z</time>
      </trkpt>
      <trkpt lat="44.82796" lon="5.19382">
        <ele>587</ele>
        <time>2015-06-28T13:29:16Z</time>
      </trkpt>
      <trkpt lat="44.82799" lon="5.19407">
        <ele>587</ele>
        <time>2015-06-28T13:29:32Z</time>
      </trkpt>
      <trkpt lat="44.828" lon="5.19421">
        <ele>588</ele>
        <time>2015-06-28T13:29:48Z</time>
      </trkpt>
      <trkpt lat="44.82802" lon="5.19437">
        <ele>590</ele>
        <time>2015-06-28T13:30:00Z</time>
      </trkpt>
      <trkpt lat="44.82804" lon="5.1945">
        <ele>590</ele>
        <time>2015-06-28T13:30:12Z</time>
      </trkpt>
      <trkpt lat="44.82809" lon="5.19463">
        <ele>591</ele>
        <time>2015-06-28T13:30:28Z</time>
      </trkpt>
      <trkpt lat="44.82809" lon="5.19475">
        <ele>594</ele>
        <time>2015-06-28T13:30:40Z</time>
      </trkpt>
      <trkpt lat="44.8281" lon="5.19484">
        <ele>594</ele>
        <time>2015-06-28T13:30:52Z</time>
      </trkpt>
      <trkpt lat="44.82806" lon="5.19501">
        <ele>596</ele>
        <time>2015-06-28T13:31:12Z</time>
      </trkpt>
      <trkpt lat="44.82802" lon="5.19515">
        <ele>597</ele>
        <time>2015-06-28T13:31:24Z</time>
      </trkpt>
      <trkpt lat="44.82801" lon="5.19527">
        <ele>597</ele>
        <time>2015-06-28T13:31:32Z</time>
      </trkpt>
      <trkpt lat="44.82797" lon="5.19535">
        <ele>598</ele>
        <time>2015-06-28T13:31:44Z</time>
      </trkpt>
      <trkpt lat="44.82797" lon="5.19539">
        <ele>600</ele>
        <time>2015-06-28T13:31:56Z</time>
      </trkpt>
      <trkpt lat="44.82788" lon="5.19554">
        <ele>600</ele>
        <time>2015-06-28T13:32:08Z</time>
      </trkpt>
      <trkpt lat="44.8278" lon="5.19567">
        <ele>600</ele>
        <time>2015-06-28T13:32:21Z</time>
      </trkpt>
      <trkpt lat="44.82775" lon="5.19587">
        <ele>605</ele>
        <time>2015-06-28T13:32:53Z</time>
      </trkpt>
      <trkpt lat="44.82792" lon="5.19584">
        <ele>606</ele>
        <time>2015-06-28T13:33:09Z</time>
      </trkpt>
      <trkpt lat="44.82802" lon="5.19581">
        <ele>607</ele>
        <time>2015-06-28T13:33:21Z</time>
      </trkpt>
      <trkpt lat="44.82811" lon="5.19573">
        <ele>611</ele>
        <time>2015-06-28T13:33:41Z</time>
      </trkpt>
      <trkpt lat="44.82817" lon="5.19561">
        <ele>611</ele>
        <time>2015-06-28T13:33:54Z</time>
      </trkpt>
      <trkpt lat="44.82825" lon="5.19552">
        <ele>613</ele>
        <time>2015-06-28T13:34:18Z</time>
      </trkpt>
      <trkpt lat="44.82834" lon="5.19546">
        <ele>613</ele>
        <time>2015-06-28T13:34:30Z</time>
      </trkpt>
      <trkpt lat="44.82845" lon="5.1954">
        <ele>616</ele>
        <time>2015-06-28T13:34:52Z</time>
      </trkpt>
      <trkpt lat="44.82854" lon="5.19533">
        <ele>618</ele>
        <time>2015-06-28T13:35:06Z</time>
      </trkpt>
      <trkpt lat="44.8286" lon="5.19523">
        <ele>619</ele>
        <time>2015-06-28T13:35:26Z</time>
      </trkpt>
      <trkpt lat="44.82869" lon="5.19523">
        <ele>622</ele>
        <time>2015-06-28T13:35:50Z</time>
      </trkpt>
      <trkpt lat="44.82879" lon="5.19516">
        <ele>624</ele>
        <time>2015-06-28T13:36:02Z</time>
      </trkpt>
      <trkpt lat="44.82893" lon="5.19519">
        <ele>624.7</ele>
        <time>2015-06-28T13:37:04Z</time>
      </trkpt>
      <trkpt lat="44.82885" lon="5.19516">
        <ele>624.3</ele>
        <time>2015-06-28T13:37:22Z</time>
      </trkpt>
      <trkpt lat="44.82898" lon="5.19525">
        <ele>624.5</ele>
        <time>2015-06-28T13:37:49Z</time>
      </trkpt>
      <trkpt lat="44.82908" lon="5.19527">
        <ele>624.5</ele>
        <time>2015-06-28T13:37:49Z</time>
      </trkpt>
    </trkseg>
  </trk>
</gpx>